Time;durP1;ratioP1;P1;durP2;ratioP2;P2;SDS_P1;SDS_P2;PMS_P1;PMS_P2;Temp;Humidity;BMP_temperature;BMP_pressure;BME280_temperature;BME280_humidity;BME280_pressure;Samples;Min_cycle;Max_cycle;Signal;HPM_P1;HPM_P2
2023/07/07 00:00:37;;;;;;;6.82;5.45;;;;;;;26.68;59.24;99530.94;5019988;28;20038;-65
2023/07/07 00:03:03;;;;;;;7.28;5.15;;;;;;;26.51;59.22;99535.81;5019197;28;20343;-65
2023/07/07 00:05:29;;;;;;;7.20;6.20;;;;;;;26.42;59.82;99532.84;5021336;28;20041;-65
2023/07/07 00:07:54;;;;;;;7.72;5.30;;;;;;;26.50;59.76;99540.44;5020759;28;20057;-65
2023/07/07 00:10:20;;;;;;;6.45;5.55;;;;;;;26.40;59.83;99541.25;5019304;28;20033;-65
2023/07/07 00:12:46;;;;;;;5.75;5.10;;;;;;;26.28;60.73;99543.38;5020183;28;20049;-65
2023/07/07 00:15:13;;;;;;;6.85;5.65;;;;;;;26.36;60.89;99540.16;5017688;28;20052;-64
2023/07/07 00:17:41;;;;;;;6.70;5.80;;;;;;;25.95;62.59;99533.81;5018142;28;20257;-65
2023/07/07 00:20:12;;;;;;;7.18;5.53;;;;;;;26.22;62.12;99530.91;5018645;28;20038;-65
2023/07/07 00:22:37;;;;;;;5.68;5.10;;;;;;;26.30;61.83;99535.78;5019874;28;20036;-64
2023/07/07 00:25:04;;;;;;;9.40;5.60;;;;;;;26.30;62.14;99537.69;5017491;28;20053;-64
2023/07/07 00:27:30;;;;;;;7.43;5.63;;;;;;;26.13;63.26;99528.97;5017504;28;20033;-64
2023/07/07 00:29:56;;;;;;;6.05;5.07;;;;;;;25.98;64.12;99535.97;5019286;28;20106;-64
2023/07/07 00:32:22;;;;;;;7.43;5.88;;;;;;;25.96;64.69;99538.16;5023914;28;20034;-64
2023/07/07 00:34:48;;;;;;;7.13;5.20;;;;;;;25.88;64.96;99532.44;5020158;28;20223;-65
2023/07/07 00:37:13;;;;;;;7.03;5.38;;;;;;;25.83;65.04;99525.09;5019328;28;20041;-64
2023/07/07 00:39:39;;;;;;;7.53;5.25;;;;;;;25.89;64.97;99532.16;5018233;28;20239;-64
2023/07/07 00:42:05;;;;;;;7.72;5.57;;;;;;;25.77;65.65;99531.59;5017600;28;20022;-64
2023/07/07 00:45:02;;;;;;;5.95;4.70;;;;;;;25.77;66.04;99532.41;5019399;28;20067;-65
2023/07/07 00:47:28;;;;;;;6.07;5.05;;;;;;;25.51;67.42;99537.97;5020704;28;20045;-64
2023/07/07 00:49:54;;;;;;;5.95;5.18;;;;;;;25.66;66.96;99535.34;5019639;28;20297;-65
2023/07/07 00:52:20;;;;;;;6.63;5.25;;;;;;;25.61;66.58;99538.00;5018002;28;20045;-65
2023/07/07 00:54:45;;;;;;;7.93;5.70;;;;;;;25.57;66.88;99528.78;5019261;28;20104;-65
2023/07/07 00:57:11;;;;;;;6.13;5.53;;;;;;;25.44;67.10;99538.22;5018845;28;20068;-65
2023/07/07 00:59:40;;;;;;;6.15;5.57;;;;;;;25.38;66.59;99537.38;5019629;28;20045;-65
2023/07/07 01:02:12;;;;;;;7.63;5.50;;;;;;;25.12;68.20;99544.56;5018960;28;20080;-65
2023/07/07 01:04:41;;;;;;;7.40;5.78;;;;;;;25.18;68.92;99542.69;5020551;28;20037;-64
2023/07/07 01:07:13;;;;;;;5.90;5.00;;;;;;;25.21;69.44;99544.06;5018490;28;20029;-64
2023/07/07 01:09:39;;;;;;;7.28;5.22;;;;;;;25.21;69.37;99546.75;5016862;28;20113;-64
2023/07/07 01:12:12;;;;;;;9.68;5.68;;;;;;;25.36;68.92;99546.84;5016420;28;20033;-65
2023/07/07 01:14:38;;;;;;;6.38;5.25;;;;;;;25.45;68.32;99535.22;5017580;28;20321;-64
2023/07/07 01:17:28;;;;;;;6.13;5.13;;;;;;;25.42;68.66;99543.91;5018179;28;20069;-65
2023/07/07 01:20:21;;;;;;;5.82;5.22;;;;;;;25.51;67.96;99536.06;4979844;28;20417;-64
2023/07/07 01:23:02;;;;;;;7.38;5.80;;;;;;;25.44;66.48;99527.38;5019358;28;20088;-65
2023/07/07 01:26:02;;;;;;;6.82;4.93;;;;;;;25.38;65.73;99523.00;5018069;28;20033;-65
2023/07/07 01:28:53;;;;;;;6.90;5.07;;;;;;;25.40;65.30;99518.13;5018757;28;20152;-64
2023/07/07 01:31:40;;;;;;;6.30;5.50;;;;;;;25.40;64.66;99526.25;5018225;28;20025;-64
2023/07/07 01:34:08;;;;;;;7.95;5.82;;;;;;;25.46;63.84;99522.50;5018842;28;20550;-65
2023/07/07 01:36:34;;;;;;;6.75;5.53;;;;;;;25.37;63.89;99526.78;5017850;28;20038;-65
2023/07/07 01:38:59;;;;;;;10.05;5.65;;;;;;;25.39;63.47;99525.44;5018908;28;20040;-64
2023/07/07 01:41:54;;;;;;;7.55;5.50;;;;;;;25.24;63.77;99505.59;5018773;28;20061;-64
2023/07/07 01:44:39;;;;;;;7.55;5.30;;;;;;;25.37;64.25;99529.50;4979724;28;20061;-65
2023/07/07 01:47:05;;;;;;;9.88;5.28;;;;;;;25.38;64.53;99526.53;5018945;28;20069;-64
2023/07/07 01:49:45;;;;;;;6.65;5.25;;;;;;;25.39;64.50;99519.22;5018479;28;20049;-64
2023/07/07 01:52:20;;;;;;;6.90;4.95;;;;;;;25.44;63.92;99516.53;5017289;28;20371;-65
2023/07/07 01:54:53;;;;;;;5.95;5.35;;;;;;;25.48;63.27;99523.03;5021529;28;20029;-64
2023/07/07 01:57:20;;;;;;;7.22;5.30;;;;;;;25.40;63.03;99527.09;5019230;28;20041;-65
2023/07/07 01:59:46;;;;;;;9.27;5.82;;;;;;;25.50;63.09;99528.19;5017062;28;20057;-64
2023/07/07 02:02:13;;;;;;;6.55;5.10;;;;;;;25.51;62.78;99524.41;5016676;28;20366;-64
2023/07/07 02:04:39;;;;;;;7.43;5.35;;;;;;;25.57;62.60;99535.00;5018211;28;20407;-64
2023/07/07 02:07:05;;;;;;;7.15;5.30;;;;;;;25.64;62.18;99532.06;5018028;28;20266;-65
2023/07/07 02:09:32;;;;;;;5.93;5.35;;;;;;;25.70;61.86;99537.25;5017806;28;20041;-64
2023/07/07 02:11:58;;;;;;;7.65;5.47;;;;;;;25.70;61.27;99544.56;5017111;28;20778;-65
2023/07/07 02:14:24;;;;;;;6.95;5.05;;;;;;;25.68;61.51;99534.00;5018113;28;20404;-65
2023/07/07 02:16:49;;;;;;;9.77;5.65;;;;;;;25.71;60.90;99525.34;5018692;28;20096;-64
2023/07/07 02:19:16;;;;;;;6.70;5.63;;;;;;;25.49;61.40;99529.28;5017930;28;20340;-64
2023/07/07 02:21:41;;;;;;;6.40;5.20;;;;;;;25.35;61.75;99529.75;5017815;28;20041;-65
2023/07/07 02:24:07;;;;;;;6.40;5.45;;;;;;;25.38;62.30;99529.25;5016599;28;20049;-65
2023/07/07 02:26:32;;;;;;;5.80;4.80;;;;;;;25.54;61.62;99534.72;5015356;28;20038;-64
2023/07/07 02:28:58;;;;;;;7.63;5.53;;;;;;;25.31;63.62;99544.09;5017469;28;20057;-65
2023/07/07 02:31:24;;;;;;;6.38;5.20;;;;;;;25.16;64.39;99544.03;5018129;28;20208;-65
2023/07/07 02:33:50;;;;;;;6.78;5.90;;;;;;;25.14;64.95;99545.09;5016180;28;20038;-64
2023/07/07 02:36:18;;;;;;;7.03;5.80;;;;;;;25.14;64.78;99534.28;5017181;28;20038;-64
2023/07/07 02:38:44;;;;;;;6.95;5.65;;;;;;;25.20;64.44;99547.84;5015995;28;20061;-64
2023/07/07 02:41:10;;;;;;;8.15;5.65;;;;;;;25.13;65.76;99550.78;5016559;28;20048;-65
2023/07/07 02:43:36;;;;;;;7.78;5.63;;;;;;;24.95;66.79;99546.56;5017133;28;20042;-65
2023/07/07 02:46:01;;;;;;;6.03;5.25;;;;;;;25.06;66.68;99548.31;5017889;28;20038;-64
2023/07/07 02:48:27;;;;;;;7.03;5.70;;;;;;;25.12;65.81;99543.72;5017153;28;20306;-64
2023/07/07 02:50:57;;;;;;;6.43;5.70;;;;;;;25.13;65.85;99551.59;5016745;28;20141;-65
2023/07/07 02:53:26;;;;;;;7.40;5.60;;;;;;;25.17;65.41;99549.19;5018302;28;20046;-64
2023/07/07 02:55:52;;;;;;;7.15;5.50;;;;;;;25.02;66.09;99558.03;5019900;28;20334;-64
2023/07/07 02:58:17;;;;;;;7.38;4.95;;;;;;;24.89;67.12;99550.31;5021836;28;20105;-65
2023/07/07 03:00:44;;;;;;;7.47;5.57;;;;;;;24.96;66.82;99550.88;5021376;28;20628;-64
2023/07/07 03:03:09;;;;;;;6.68;5.32;;;;;;;24.77;67.83;99549.66;5020879;28;20109;-64
2023/07/07 03:05:35;;;;;;;7.32;5.57;;;;;;;24.75;68.14;99551.81;5021502;28;20078;-64
2023/07/07 03:08:00;;;;;;;7.25;5.78;;;;;;;24.82;67.93;99547.81;5020198;28;20046;-64
2023/07/07 03:10:26;;;;;;;8.07;6.00;;;;;;;24.90;67.60;99543.81;5019323;28;20073;-65
2023/07/07 03:12:51;;;;;;;9.25;5.82;;;;;;;24.80;68.14;99546.44;5021096;28;20041;-65
2023/07/07 03:15:20;;;;;;;7.15;5.38;;;;;;;24.90;67.44;99540.28;5019962;28;20045;-64
2023/07/07 03:17:47;;;;;;;6.85;6.15;;;;;;;24.94;67.71;99544.09;5021386;28;20046;-64
2023/07/07 03:20:13;;;;;;;8.50;5.18;;;;;;;25.01;67.64;99548.28;5020731;28;20806;-65
2023/07/07 03:22:38;;;;;;;8.20;5.60;;;;;;;25.03;67.49;99542.59;5020940;28;20109;-64
2023/07/07 03:25:04;;;;;;;6.53;5.05;;;;;;;24.89;67.88;99549.47;5021183;28;20046;-64
2023/07/07 03:27:30;;;;;;;10.45;6.00;;;;;;;24.80;68.80;99544.56;5021372;28;20053;-64
2023/07/07 03:29:56;;;;;;;6.88;5.28;;;;;;;25.12;67.34;99546.44;5021639;28;20034;-64
2023/07/07 03:32:21;;;;;;;7.85;5.50;;;;;;;25.17;67.61;99543.75;5020916;28;20036;-65
2023/07/07 03:34:50;;;;;;;7.65;5.72;;;;;;;25.02;67.76;99544.50;5020488;28;20109;-65
2023/07/07 03:37:16;;;;;;;7.82;5.85;;;;;;;25.00;67.85;99543.13;5020680;28;20046;-64
2023/07/07 03:39:42;;;;;;;7.88;5.43;;;;;;;25.27;66.92;99545.72;5020574;28;20035;-65
2023/07/07 03:42:08;;;;;;;8.50;5.90;;;;;;;25.33;66.65;99548.19;5020256;28;20112;-64
2023/07/07 03:44:35;;;;;;;6.72;5.40;;;;;;;25.41;65.80;99542.25;5020312;28;20105;-64
2023/07/07 03:47:01;;;;;;;10.13;5.75;;;;;;;25.43;64.98;99540.09;5020400;28;20109;-64
2023/07/07 03:49:26;;;;;;;9.02;5.60;;;;;;;25.23;65.62;99545.44;5020266;28;20344;-65
2023/07/07 03:51:52;;;;;;;6.35;5.30;;;;;;;25.40;65.05;99546.06;5023331;28;20054;-65
2023/07/07 03:54:17;;;;;;;7.90;5.72;;;;;;;25.45;64.82;99548.78;5018275;28;20041;-64
2023/07/07 03:56:43;;;;;;;9.23;5.35;;;;;;;25.43;64.61;99521.13;5018344;28;20104;-65
2023/07/07 03:59:08;;;;;;;7.93;5.43;;;;;;;25.35;64.75;99540.59;5020250;28;20038;-65
2023/07/07 04:01:34;;;;;;;7.82;6.07;;;;;;;25.45;65.22;99546.06;5020551;28;20390;-64
2023/07/07 04:04:00;;;;;;;7.75;5.90;;;;;;;25.52;65.01;99551.25;5018339;28;20048;-65
2023/07/07 04:06:25;;;;;;;7.38;6.00;;;;;;;25.52;64.69;99548.53;5019691;28;20041;-65
2023/07/07 04:08:51;;;;;;;5.90;5.00;;;;;;;25.54;64.70;99548.28;5020059;28;20468;-64
2023/07/07 04:11:20;;;;;;;8.40;5.47;;;;;;;25.54;64.37;99554.53;5020984;28;20331;-64
2023/07/07 04:13:50;;;;;;;7.25;5.35;;;;;;;25.62;64.15;99554.00;5019602;28;20038;-64
2023/07/07 04:16:21;;;;;;;11.07;6.15;;;;;;;25.31;65.17;99560.38;5017764;28;20122;-65
2023/07/07 04:18:48;;;;;;;7.53;6.05;;;;;;;25.46;64.75;99565.88;5018840;28;20037;-64
2023/07/07 04:21:20;;;;;;;9.65;5.72;;;;;;;25.23;65.89;99558.97;5020152;28;20037;-65
2023/07/07 04:23:48;;;;;;;7.78;6.18;;;;;;;25.50;65.38;99556.13;5017995;28;20038;-64
2023/07/07 04:26:14;;;;;;;7.65;5.90;;;;;;;25.79;63.80;99561.97;5019053;28;20045;-65
2023/07/07 04:28:40;;;;;;;6.80;5.70;;;;;;;26.04;63.12;99551.22;5020231;28;20050;-65
2023/07/07 04:31:08;;;;;;;7.78;5.60;;;;;;;26.22;62.38;99552.59;5019616;28;20037;-64
2023/07/07 04:33:35;;;;;;;7.97;6.00;;;;;;;26.33;62.37;99558.91;5019495;28;20069;-65
2023/07/07 04:36:04;;;;;;;8.07;5.60;;;;;;;26.36;62.72;99552.94;5019944;28;20108;-64
2023/07/07 04:38:33;;;;;;;7.22;5.32;;;;;;;26.50;62.57;99554.03;5019484;28;20049;-65
2023/07/07 04:41:13;;;;;;;6.97;5.30;;;;;;;26.73;61.62;99561.63;5022645;28;20366;-65
2023/07/07 04:43:45;;;;;;;8.95;5.25;;;;;;;26.82;61.61;99559.16;5019578;28;20041;-64
2023/07/07 04:46:14;;;;;;;5.88;4.90;;;;;;;26.91;61.05;99564.88;5018542;28;20041;-65
2023/07/07 04:48:39;;;;;;;6.75;5.50;;;;;;;26.95;61.29;99555.91;5017519;28;20034;-65
2023/07/07 04:51:07;;;;;;;7.38;5.35;;;;;;;27.10;60.78;99566.00;5019958;28;20374;-65
2023/07/07 04:53:34;;;;;;;6.75;5.50;;;;;;;27.25;59.95;99557.78;5019937;28;20069;-66
2023/07/07 04:56:02;;;;;;;8.25;5.53;;;;;;;27.39;58.67;99565.38;5020943;28;20259;-65
2023/07/07 04:58:29;;;;;;;9.00;5.53;;;;;;;27.38;59.55;99553.69;5019637;28;20358;-65
2023/07/07 05:01:26;;;;;;;6.78;4.78;;;;;;;27.47;58.40;99557.47;5018261;28;20042;-64
2023/07/07 05:03:54;;;;;;;13.80;5.95;;;;;;;27.55;58.30;99559.59;5001187;28;20405;-64
2023/07/07 05:06:21;;;;;;;7.05;5.28;;;;;;;27.62;58.74;99565.59;5019876;28;20045;-65
2023/07/07 05:08:48;;;;;;;7.30;5.25;;;;;;;27.74;58.67;99556.28;5017968;28;20048;-65
2023/07/07 05:11:16;;;;;;;8.27;5.60;;;;;;;27.94;58.73;99567.06;5017481;28;20392;-64
2023/07/07 05:13:41;;;;;;;8.55;5.63;;;;;;;28.07;58.20;99565.63;5018191;28;20049;-65
2023/07/07 05:16:13;;;;;;;8.15;5.10;;;;;;;28.13;58.27;99556.38;5019285;28;20034;-64
2023/07/07 05:18:39;;;;;;;8.18;5.60;;;;;;;28.23;58.60;99559.06;5018610;28;20052;-66
2023/07/07 05:21:07;;;;;;;7.18;5.45;;;;;;;28.43;57.62;99555.38;5019200;28;20044;-65
2023/07/07 05:23:33;;;;;;;8.40;5.28;;;;;;;28.48;57.90;99564.31;5018424;28;20044;-64
2023/07/07 05:25:59;;;;;;;9.20;5.60;;;;;;;28.65;58.36;99565.84;5018460;28;20239;-64
2023/07/07 05:28:25;;;;;;;6.20;5.40;;;;;;;28.68;57.37;99568.78;5018789;28;20052;-64
2023/07/07 05:30:50;;;;;;;8.52;5.50;;;;;;;28.66;57.44;99564.72;5019345;28;20037;-64
2023/07/07 05:33:16;;;;;;;5.95;4.97;;;;;;;28.90;56.49;99571.91;5018336;28;20334;-66
2023/07/07 05:35:52;;;;;;;6.75;5.25;;;;;;;29.03;55.76;99575.06;5018956;28;20335;-64
2023/07/07 05:38:20;;;;;;;10.55;5.80;;;;;;;29.05;56.04;99568.22;5019094;28;20116;-64
2023/07/07 05:40:46;;;;;;;9.88;5.57;;;;;;;29.11;56.13;99572.50;5016626;28;20038;-64
2023/07/07 05:43:16;;;;;;;6.47;5.40;;;;;;;28.90;56.61;99580.06;5016125;28;20053;-66
2023/07/07 05:45:42;;;;;;;10.23;5.85;;;;;;;29.07;56.39;99582.38;5016755;28;20422;-65
2023/07/07 05:48:09;;;;;;;9.20;5.88;;;;;;;29.10;56.47;99580.97;5000052;28;20057;-64
2023/07/07 05:50:35;;;;;;;10.70;5.95;;;;;;;29.30;55.69;99575.34;5018408;28;20029;-66
2023/07/07 05:53:01;;;;;;;7.65;5.57;;;;;;;29.23;56.79;99572.97;5018283;28;20045;-66
2023/07/07 05:55:32;;;;;;;7.40;5.57;;;;;;;29.49;55.94;99576.25;5016137;28;20033;-64
2023/07/07 05:57:59;;;;;;;6.60;5.85;;;;;;;29.61;54.33;99581.28;5015933;28;20420;-65
2023/07/07 06:00:27;;;;;;;6.90;5.65;;;;;;;29.36;55.84;99579.66;5023189;28;20056;-64
2023/07/07 06:02:56;;;;;;;7.57;5.90;;;;;;;29.55;55.67;99577.81;5019246;28;20100;-65
2023/07/07 06:05:22;;;;;;;9.85;6.40;;;;;;;29.77;58.85;99576.47;5017845;28;20096;-65
2023/07/07 06:07:51;;;;;;;6.93;5.78;;;;;;;29.62;60.41;99576.66;5018819;28;20342;-65
2023/07/07 06:10:16;;;;;;;9.02;5.63;;;;;;;29.73;62.23;99581.69;5018970;28;20328;-64
2023/07/07 06:12:42;;;;;;;9.85;6.25;;;;;;;29.60;61.71;99582.41;5018788;28;20041;-64
2023/07/07 06:15:08;;;;;;;8.30;6.15;;;;;;;29.80;60.66;99587.59;5019087;28;20140;-65
2023/07/07 06:17:34;;;;;;;10.23;5.88;;;;;;;29.73;62.05;99578.97;5019637;28;20033;-65
2023/07/07 06:20:00;;;;;;;9.18;6.15;;;;;;;29.64;59.80;99577.16;5016809;28;20281;-64
2023/07/07 06:22:26;;;;;;;9.30;6.07;;;;;;;29.80;61.81;99581.34;5016725;28;20054;-65
2023/07/07 06:24:52;;;;;;;7.57;5.80;;;;;;;29.84;62.22;99577.72;5018836;28;20041;-65
2023/07/07 06:27:19;;;;;;;10.43;6.05;;;;;;;30.13;60.87;99582.28;5019868;28;20271;-65
2023/07/07 06:29:45;;;;;;;8.70;6.22;;;;;;;30.35;59.18;99574.34;5022336;28;20080;-64
2023/07/07 06:32:11;;;;;;;7.97;5.93;;;;;;;30.36;58.24;99575.97;5021725;28;20037;-66
2023/07/07 06:34:36;;;;;;;10.18;6.25;;;;;;;30.58;58.24;99566.31;5021350;28;20108;-65
2023/07/07 06:37:02;;;;;;;7.05;5.60;;;;;;;30.81;56.44;99571.69;5020847;28;20293;-64
2023/07/07 06:39:28;;;;;;;7.63;6.10;;;;;;;30.89;56.53;99574.84;5020736;28;20040;-64
2023/07/07 06:41:54;;;;;;;9.05;5.78;;;;;;;30.77;56.09;99576.13;5022609;28;20046;-64
2023/07/07 06:44:20;;;;;;;6.55;5.85;;;;;;;30.42;57.15;99573.97;5021599;28;20052;-65
2023/07/07 06:46:45;;;;;;;6.63;5.93;;;;;;;30.31;55.93;99572.50;5021277;28;20351;-65
2023/07/07 06:49:11;;;;;;;10.27;6.35;;;;;;;30.45;56.85;99571.44;5022565;28;20361;-64
2023/07/07 06:51:37;;;;;;;10.38;6.40;;;;;;;30.64;55.35;99568.72;5021373;28;20034;-64
2023/07/07 06:54:02;;;;;;;7.88;5.88;;;;;;;30.77;53.04;99572.59;5019349;28;20061;-64
2023/07/07 06:56:28;;;;;;;7.70;6.95;;;;;;;30.79;54.94;99573.09;5019431;28;20416;-64
2023/07/07 06:58:54;;;;;;;8.00;6.15;;;;;;;30.71;53.43;99580.06;5021474;28;20030;-65
2023/07/07 07:01:19;;;;;;;6.18;5.57;;;;;;;30.70;53.06;99572.16;5021476;28;20038;-64
2023/07/07 07:03:45;;;;;;;6.57;5.88;;;;;;;30.69;52.00;99576.00;5019823;28;20037;-65
2023/07/07 07:06:12;;;;;;;7.45;5.75;;;;;;;30.60;52.99;99573.16;5021763;28;20307;-64
2023/07/07 07:08:38;;;;;;;8.57;5.90;;;;;;;30.68;52.33;99571.66;5022104;28;20048;-66
2023/07/07 07:11:03;;;;;;;6.80;6.10;;;;;;;30.76;50.92;99566.31;5021666;28;20042;-65
2023/07/07 07:13:29;;;;;;;7.60;5.68;;;;;;;31.08;51.17;99560.00;5022674;28;20044;-65
2023/07/07 07:15:55;;;;;;;7.57;5.93;;;;;;;31.27;49.42;99559.16;5021745;28;20045;-64
2023/07/07 07:18:21;;;;;;;6.85;6.10;;;;;;;31.57;49.99;99569.50;5020389;28;20061;-64
2023/07/07 07:20:51;;;;;;;8.18;6.38;;;;;;;31.93;48.77;99571.53;5021894;28;20037;-65
2023/07/07 07:23:17;;;;;;;6.88;5.95;;;;;;;32.24;46.74;99558.78;5021918;28;20034;-64
2023/07/07 07:25:44;;;;;;;12.68;6.63;;;;;;;32.50;46.35;99561.75;5018857;28;20613;-66
2023/07/07 07:28:11;;;;;;;8.45;6.20;;;;;;;32.73;45.02;99559.00;5018661;28;20052;-65
2023/07/07 07:30:37;;;;;;;7.05;6.30;;;;;;;32.84;44.11;99565.88;5020718;28;20022;-65
2023/07/07 07:33:11;;;;;;;15.27;6.07;;;;;;;32.66;43.56;99567.66;5020684;28;20034;-64
2023/07/07 07:35:36;;;;;;;7.18;5.72;;;;;;;32.66;42.10;99568.47;5021083;28;20064;-65
2023/07/07 07:38:02;;;;;;;9.05;6.70;;;;;;;32.96;43.41;99564.16;5022038;28;20046;-66
2023/07/07 07:40:28;;;;;;;8.38;6.05;;;;;;;33.25;43.30;99562.84;5020618;28;20044;-65
2023/07/07 07:42:53;;;;;;;10.60;6.60;;;;;;;33.33;41.76;99567.63;5021154;28;20037;-65
2023/07/07 07:45:21;;;;;;;7.10;6.05;;;;;;;33.47;42.32;99567.50;5020551;28;20387;-65
2023/07/07 07:47:48;;;;;;;7.55;6.75;;;;;;;33.54;41.56;99570.59;5020874;28;20282;-64
2023/07/07 07:50:15;;;;;;;8.13;6.78;;;;;;;33.49;42.12;99568.81;5020393;28;20084;-66
2023/07/07 07:52:41;;;;;;;7.75;6.60;;;;;;;33.54;41.65;99568.66;5019844;28;20050;-64
2023/07/07 07:55:07;;;;;;;8.00;6.47;;;;;;;33.58;42.41;99572.41;5021437;28;20112;-65
2023/07/07 07:57:32;;;;;;;8.18;6.53;;;;;;;33.81;40.38;99566.78;5020810;28;20029;-66
2023/07/07 07:59:58;;;;;;;6.20;5.65;;;;;;;33.92;40.66;99568.94;5023501;28;20037;-65
2023/07/07 08:02:23;;;;;;;7.65;6.82;;;;;;;34.01;39.06;99568.16;5019529;28;20034;-65
2023/07/07 08:04:49;;;;;;;6.90;6.15;;;;;;;33.85;39.43;99567.81;5019047;28;20041;-66
2023/07/07 08:07:15;;;;;;;6.72;6.03;;;;;;;33.82;39.08;99573.94;5020386;28;20044;-65
2023/07/07 08:09:40;;;;;;;9.02;6.30;;;;;;;33.81;39.29;99575.88;5020296;28;20069;-65
2023/07/07 08:12:08;;;;;;;7.75;5.97;;;;;;;33.84;39.63;99567.00;5020094;28;20038;-65
2023/07/07 08:14:34;;;;;;;8.80;5.80;;;;;;;34.00;38.74;99570.09;5019551;28;20037;-65
2023/07/07 08:17:08;;;;;;;7.32;6.18;;;;;;;34.08;38.64;99571.22;5001985;28;20045;-65
2023/07/07 08:19:37;;;;;;;6.20;5.57;;;;;;;34.01;38.61;99568.97;5019410;28;20339;-65
2023/07/07 08:22:05;;;;;;;8.38;6.68;;;;;;;34.01;39.16;99571.69;5017876;28;20030;-65
2023/07/07 08:24:36;;;;;;;7.70;6.20;;;;;;;34.25;37.71;99563.78;5019829;28;20038;-66
2023/07/07 08:27:01;;;;;;;6.97;6.28;;;;;;;34.43;38.16;99569.34;5021465;28;20034;-64
2023/07/07 08:29:27;;;;;;;7.03;5.95;;;;;;;34.24;37.22;99567.69;5021118;28;20284;-64
2023/07/07 08:31:54;;;;;;;6.25;5.55;;;;;;;34.40;37.75;99565.31;5021360;28;20036;-66
2023/07/07 08:34:19;;;;;;;7.13;6.18;;;;;;;34.44;36.69;99563.53;5019949;28;20064;-66
2023/07/07 08:36:47;;;;;;;6.82;6.13;;;;;;;34.62;36.68;99563.50;5020269;28;20042;-65
2023/07/07 08:39:18;;;;;;;6.82;6.13;;;;;;;34.76;37.04;99556.69;5020847;28;20122;-66
2023/07/07 08:41:52;;;;;;;8.15;6.53;;;;;;;34.86;36.95;99548.09;5022034;28;20211;-65
2023/07/07 08:44:21;;;;;;;7.40;6.07;;;;;;;34.70;36.76;99547.00;5019359;28;20061;-65
2023/07/07 08:46:52;;;;;;;8.13;5.95;;;;;;;34.86;36.92;99545.34;5019165;28;20338;-65
2023/07/07 08:49:26;;;;;;;7.93;6.88;;;;;;;35.00;35.33;99552.59;5019283;28;20042;-63
2023/07/07 08:52:03;;;;;;;10.77;6.03;;;;;;;35.02;35.70;99544.81;5018540;28;20104;-64
2023/07/07 08:54:40;;;;;;;7.30;6.10;;;;;;;35.06;34.54;99538.34;5019641;28;20045;-62
2023/07/07 08:57:10;;;;;;;8.10;5.90;;;;;;;35.00;34.51;99531.41;5017133;28;20606;-63
2023/07/07 08:59:38;;;;;;;7.38;6.03;;;;;;;35.07;34.56;99531.69;5017546;28;20100;-64
2023/07/07 09:02:22;;;;;;;8.60;6.25;;;;;;;35.09;34.94;99528.63;5019192;28;20650;-65
2023/07/07 09:04:59;;;;;;;6.82;6.15;;;;;;;35.21;34.07;99517.72;5018977;28;20077;-65
2023/07/07 09:07:59;;;;;;;7.57;6.90;;;;;;;34.85;34.56;99530.00;5019141;28;20224;-66
2023/07/07 09:10:51;;;;;;;9.38;6.18;;;;;;;34.76;34.20;99520.94;5018526;28;20356;-65
2023/07/07 09:13:28;;;;;;;9.32;5.80;;;;;;;34.85;33.74;99520.94;5019868;28;20279;-66
2023/07/07 09:16:03;;;;;;;6.65;5.47;;;;;;;34.92;33.75;99523.19;5020415;28;20063;-65
2023/07/07 09:18:36;;;;;;;7.00;5.55;;;;;;;34.99;33.50;99516.03;5018971;28;20050;-65
2023/07/07 09:21:09;;;;;;;6.28;5.68;;;;;;;34.80;34.13;99513.63;5016896;28;20133;-65
2023/07/07 09:23:37;;;;;;;7.25;5.68;;;;;;;34.75;32.71;99505.56;5016786;28;20052;-64
2023/07/07 09:26:10;;;;;;;6.22;5.63;;;;;;;34.71;34.39;99504.59;5017578;28;20041;-66
2023/07/07 09:28:42;;;;;;;6.40;5.68;;;;;;;34.89;33.49;99500.69;5017346;28;20042;-64
2023/07/07 09:31:23;;;;;;;6.47;5.15;;;;;;;34.86;33.80;99511.53;5018572;28;20038;-66
2023/07/07 09:33:49;;;;;;;6.38;5.43;;;;;;;34.83;34.03;99507.50;5018573;28;20058;-64
2023/07/07 09:36:50;;;;;;;6.55;5.03;;;;;;;34.83;32.59;99502.00;5017478;28;20045;-66
2023/07/07 09:39:34;;;;;;;5.65;5.10;;;;;;;34.70;33.04;99504.94;4976029;28;20139;-66
2023/07/07 09:41:59;;;;;;;6.05;4.63;;;;;;;34.40;31.52;99504.03;5016953;28;20283;-65
2023/07/07 09:44:43;;;;;;;6.05;5.05;;;;;;;34.36;32.46;99506.63;5018567;28;20049;-65
2023/07/07 09:47:38;;;;;;;5.57;5.03;;;;;;;34.33;32.83;99504.50;5017609;28;20202;-65
2023/07/07 09:50:18;;;;;;;6.07;5.45;;;;;;;34.52;33.40;99502.22;5019006;28;20077;-65
2023/07/07 09:52:52;;;;;;;9.73;5.50;;;;;;;34.65;33.78;99489.41;5018087;28;20049;-66
2023/07/07 09:55:27;;;;;;;7.18;5.47;;;;;;;34.79;33.73;99500.22;5017594;28;20067;-65
2023/07/07 09:58:10;;;;;;;5.75;5.10;;;;;;;34.69;32.43;99493.13;5016445;28;20236;-65
2023/07/07 10:00:38;;;;;;;5.72;5.15;;;;;;;34.61;33.82;99488.44;5015642;28;20030;-65
2023/07/07 10:03:41;;;;;;;6.00;5.35;;;;;;;34.66;34.29;99487.47;5015689;28;20038;-66
2023/07/07 10:06:48;;;;;;;8.27;5.10;;;;;;;34.76;34.16;99485.16;4992913;28;20783;-66
2023/07/07 10:09:14;;;;;;;6.55;5.32;;;;;;;34.82;33.33;99480.31;4971355;28;20034;-66
2023/07/07 10:11:42;;;;;;;6.47;5.78;;;;;;;34.78;33.33;99482.91;5018309;28;20284;-66
2023/07/07 10:14:14;;;;;;;6.55;5.50;;;;;;;34.53;33.68;99481.84;5018527;28;20045;-66
2023/07/07 10:17:05;;;;;;;7.03;5.43;;;;;;;34.05;34.20;99484.75;5023280;28;20076;-66
2023/07/07 10:19:41;;;;;;;5.45;4.97;;;;;;;33.97;34.15;99480.06;5019629;28;20108;-66
2023/07/07 10:22:14;;;;;;;5.70;5.20;;;;;;;34.16;33.72;99480.56;5018923;28;20594;-66
2023/07/07 10:24:39;;;;;;;;;;;;;;;34.29;34.31;99473.25;5018523;28;20080;-65
2023/07/07 10:27:10;;;;;;;6.38;5.13;;;;;;;34.36;33.58;99468.13;5018079;28;19921;-64
2023/07/07 10:29:39;;;;;;;6.88;5.20;;;;;;;34.49;33.83;99474.56;5017307;28;20041;-66
2023/07/07 10:32:10;;;;;;;11.07;6.53;;;;;;;34.51;33.32;99475.06;5018152;28;20330;-64
2023/07/07 10:34:40;;;;;;;7.78;5.40;;;;;;;34.59;33.35;99463.22;5016490;28;20725;-64
2023/07/07 10:37:23;;;;;;;6.40;5.18;;;;;;;34.61;33.81;99466.44;5016268;28;20050;-65
2023/07/07 10:39:54;;;;;;;9.30;5.88;;;;;;;34.34;39.81;99475.09;5016044;28;20030;-65
2023/07/07 10:42:25;;;;;;;15.10;7.03;;;;;;;34.20;57.89;99472.47;5016445;28;20045;-65
2023/07/07 10:44:57;;;;;;;10.75;6.55;;;;;;;33.93;58.41;99473.63;5018088;28;20109;-66
2023/07/07 10:47:29;;;;;;;9.80;6.43;;;;;;;33.66;54.83;99474.69;5017513;28;20038;-65
2023/07/07 10:49:58;;;;;;;8.95;6.20;;;;;;;33.42;53.27;99468.84;5017164;28;20041;-65
2023/07/07 10:52:42;;;;;;;8.02;5.90;;;;;;;33.30;49.20;99459.31;5018359;28;20073;-65
2023/07/07 10:55:31;;;;;;;7.38;6.10;;;;;;;33.42;56.94;99457.88;5018072;28;20473;-65
2023/07/07 10:58:21;;;;;;;6.95;5.82;;;;;;;33.34;48.56;99453.19;5017693;28;20041;-64
2023/07/07 11:01:17;;;;;;;8.75;6.28;;;;;;;33.07;48.29;99471.44;5017214;28;20041;-64
2023/07/07 11:04:03;;;;;;;9.93;6.93;;;;;;;32.83;63.73;99484.72;5017497;28;20050;-64
2023/07/07 11:06:32;;;;;;;15.45;7.10;;;;;;;32.67;65.95;99479.63;5017291;28;20034;-64
2023/07/07 11:09:12;;;;;;;11.93;6.78;;;;;;;32.49;66.78;99472.44;5020599;28;20038;-65
2023/07/07 11:11:50;;;;;;;9.82;6.85;;;;;;;32.28;61.26;99461.19;5016553;28;20046;-64
2023/07/07 11:14:29;;;;;;;9.25;6.63;;;;;;;32.12;60.01;99461.81;5025094;28;20681;-64
2023/07/07 11:17:33;;;;;;;12.73;7.30;;;;;;;31.92;57.23;99461.19;5021374;28;20358;-65
2023/07/07 11:20:20;;;;;;;8.13;6.03;;;;;;;31.80;53.78;99460.91;5020708;28;20088;-65
2023/07/07 11:23:02;;;;;;;17.15;8.55;;;;;;;31.74;60.48;99473.91;5021253;28;20076;-65
2023/07/07 11:25:38;;;;;;;23.05;10.55;;;;;;;31.63;67.07;99479.88;5021071;28;20352;-64
2023/07/07 11:28:18;;;;;;;14.38;7.80;;;;;;;31.06;60.21;99465.72;5020909;28;20036;-65
2023/07/07 11:31:05;;;;;;;15.00;7.90;;;;;;;30.98;62.68;99447.28;5020011;28;20224;-66
2023/07/07 11:33:49;;;;;;;8.52;6.43;;;;;;;30.74;58.88;99445.53;5022424;28;20068;-65
2023/07/07 11:36:46;;;;;;;10.30;6.63;;;;;;;30.51;58.22;99435.56;5021107;28;20067;-65
2023/07/07 11:39:14;;;;;;;12.10;7.15;;;;;;;30.59;64.61;99442.28;4997927;28;20053;-65
2023/07/07 11:42:05;;;;;;;11.77;7.28;;;;;;;30.43;68.17;99439.00;5019355;28;20298;-65
2023/07/07 11:44:49;;;;;;;8.75;6.53;;;;;;;29.73;57.72;99438.97;5018702;28;20042;-64
2023/07/07 11:47:19;;;;;;;;;;;;;;;29.31;67.95;99445.25;5020232;28;20401;-64
2023/07/07 11:49:47;;;;;;;9.82;6.00;;;;;;;29.08;70.91;99453.13;5020480;28;19926;-64